createdAt,value
2023-05-04T00:01:50.970Z,99595.19
2023-05-04T00:04:18.184Z,99597.56
2023-05-04T00:06:44.929Z,99595.63
2023-05-04T00:09:13.310Z,99592.84
2023-05-04T00:11:40.271Z,99588.38
2023-05-04T00:14:07.515Z,99587.84
2023-05-04T00:16:35.253Z,99593.38
2023-05-04T00:19:02.279Z,99589.63
2023-05-04T00:21:28.962Z,99583.09
2023-05-04T00:23:56.053Z,99584.84
2023-05-04T00:26:22.803Z,99580.66
2023-05-04T00:28:49.767Z,99584.63
2023-05-04T00:31:19.094Z,99579.13
2023-05-04T00:33:46.334Z,99573.63
2023-05-04T00:36:16.047Z,99570.47
2023-05-04T00:38:48.320Z,99579.03
2023-05-04T00:41:15.394Z,99573.09
2023-05-04T00:43:42.388Z,99570.84
2023-05-04T00:46:10.364Z,99564.75
2023-05-04T00:48:41.300Z,99566.19
2023-05-04T00:51:08.307Z,99564.69
2023-05-04T00:53:36.142Z,99558.84
2023-05-04T00:56:03.680Z,99566.63
2023-05-04T00:58:31.844Z,99566.31
2023-05-04T01:00:58.679Z,99557.22
2023-05-04T01:03:26.153Z,99560.47
2023-05-04T01:06:20.332Z,99554.97
2023-05-04T01:09:10.819Z,99560.47
2023-05-04T01:11:41.403Z,99553.75
2023-05-04T01:14:08.441Z,99556.78
2023-05-04T01:16:35.171Z,99551.41
2023-05-04T01:19:03.804Z,99551.06
2023-05-04T01:21:31.139Z,99547.56
2023-05-04T01:23:58.830Z,99554.06
2023-05-04T01:26:30.183Z,99554.59
2023-05-04T01:29:18.671Z,99554.59
2023-05-04T01:31:46.149Z,99558.59
2023-05-04T01:34:13.661Z,99553.09
2023-05-04T01:36:40.522Z,99550.38
2023-05-04T01:39:08.478Z,99551.44
2023-05-04T01:41:36.035Z,99550.97
2023-05-04T01:44:04.065Z,99542.22
2023-05-04T01:46:30.845Z,99544.16
2023-05-04T01:48:57.865Z,99535.13
2023-05-04T01:51:24.660Z,99533.56
2023-05-04T01:53:51.764Z,99531.88
2023-05-04T01:56:18.467Z,99526.66
2023-05-04T01:58:45.594Z,99529.69
2023-05-04T02:01:12.306Z,99534.53
2023-05-04T02:03:39.792Z,99528.47
2023-05-04T02:06:07.135Z,99534.06
2023-05-04T02:08:34.182Z,99529.09
2023-05-04T02:11:00.907Z,99533.72
2023-05-04T02:13:27.901Z,99534.03
2023-05-04T02:15:54.627Z,99535.97
2023-05-04T02:18:21.683Z,99536.06
2023-05-04T02:20:48.447Z,99540.69
2023-05-04T02:23:15.431Z,99536.38
2023-05-04T02:25:42.173Z,99540.25
2023-05-04T02:28:09.187Z,99529.84
2023-05-04T02:30:35.908Z,99535.44
2023-05-04T02:33:02.971Z,99544.44
2023-05-04T02:35:29.821Z,99539.31
2023-05-04T02:37:56.833Z,99536.06
2023-05-04T02:40:23.567Z,99541.66
2023-05-04T02:42:50.569Z,99538.00
2023-05-04T02:45:17.289Z,99549.19
2023-05-04T02:47:44.333Z,99550.91
2023-05-04T02:50:11.148Z,99547.53
2023-05-04T02:52:38.207Z,99538.69
2023-05-04T02:55:05.330Z,99542.75
2023-05-04T02:57:32.067Z,99549.19
2023-05-04T02:59:59.051Z,99542.09
2023-05-04T03:02:25.816Z,99546.91
2023-05-04T03:04:52.901Z,99542.78
2023-05-04T03:07:19.620Z,99537.56
2023-05-04T03:09:47.973Z,99540.59
2023-05-04T03:12:14.822Z,99549.13
2023-05-04T03:14:41.875Z,99541.63
2023-05-04T03:17:08.739Z,99543.75
2023-05-04T03:19:36.011Z,99539.41
2023-05-04T03:22:03.009Z,99538.47
2023-05-04T03:24:30.012Z,99543.38
2023-05-04T03:26:57.389Z,99549.00
2023-05-04T03:29:24.552Z,99540.94
2023-05-04T03:31:51.309Z,99545.94
2023-05-04T03:34:21.499Z,99551.31
2023-05-04T03:36:49.002Z,99543.03
2023-05-04T03:39:19.175Z,99552.09
2023-05-04T03:41:45.973Z,99555.16
2023-05-04T03:44:12.986Z,99557.88
2023-05-04T03:46:39.732Z,99561.59
2023-05-04T03:49:06.741Z,99553.66
2023-05-04T03:51:33.447Z,99560.34
2023-05-04T03:54:00.960Z,99558.06
2023-05-04T03:56:27.711Z,99563.22
2023-05-04T03:58:54.874Z,99557.16
2023-05-04T04:01:21.614Z,99559.09
2023-05-04T04:03:48.750Z,99556.81
2023-05-04T04:06:15.942Z,99559.31
2023-05-04T04:08:43.055Z,99566.13
2023-05-04T04:11:09.825Z,99566.50
2023-05-04T04:13:36.865Z,99565.91
2023-05-04T04:16:03.670Z,99562.09
2023-05-04T04:18:30.693Z,99566.03
2023-05-04T04:20:57.473Z,99557.66
2023-05-04T04:23:24.952Z,99557.56
2023-05-04T04:25:53.784Z,99564.88
2023-05-04T04:28:21.317Z,99557.56
2023-05-04T04:30:48.283Z,99568.34
2023-05-04T04:33:16.458Z,99560.47
2023-05-04T04:35:43.261Z,99559.78
2023-05-04T04:38:10.392Z,99565.84
2023-05-04T04:40:37.209Z,99562.97
2023-05-04T04:43:04.785Z,99561.94
2023-05-04T04:45:33.616Z,99563.75
2023-05-04T04:48:01.122Z,99566.34
2023-05-04T04:50:29.125Z,99568.28
2023-05-04T04:52:56.278Z,99566.16
2023-05-04T04:55:25.994Z,99562.63
2023-05-04T04:57:53.295Z,99570.09
2023-05-04T05:00:20.108Z,99570.09
2023-05-04T05:02:47.213Z,99563.09
2023-05-04T05:05:14.019Z,99560.97
2023-05-04T05:07:41.266Z,99561.81
2023-05-04T05:10:08.751Z,99563.94
2023-05-04T05:12:35.945Z,99559.31
2023-05-04T05:15:04.567Z,99556.28
2023-05-04T05:17:31.749Z,99558.78
2023-05-04T05:19:58.463Z,99568.31
2023-05-04T05:22:25.444Z,99564.25
2023-05-04T05:24:52.163Z,99566.84
2023-05-04T05:27:19.185Z,99577.34
2023-05-04T05:29:45.920Z,99572.41
2023-05-04T05:32:12.993Z,99563.13
2023-05-04T05:34:39.709Z,99566.00
2023-05-04T05:37:07.023Z,99563.19
2023-05-04T05:39:34.175Z,99577.16
2023-05-04T05:42:01.954Z,99567.75
2023-05-04T05:44:28.886Z,99577.31
2023-05-04T05:46:56.185Z,99567.16
2023-05-04T05:49:22.939Z,99567.81
2023-05-04T05:51:50.160Z,99564.56
2023-05-04T05:54:17.399Z,99570.41
2023-05-04T05:56:44.456Z,99571.78
2023-05-04T05:59:11.250Z,99566.72
2023-05-04T06:01:38.559Z,99566.28
2023-05-04T06:04:05.598Z,99572.88
2023-05-04T06:06:33.022Z,99562.50
2023-05-04T06:09:00.429Z,99568.22
2023-05-04T06:11:27.572Z,99561.75
2023-05-04T06:13:54.477Z,99562.09
2023-05-04T06:16:21.568Z,99564.22
2023-05-04T06:18:48.529Z,99564.75
2023-05-04T06:21:15.748Z,99572.97
2023-05-04T06:23:42.521Z,99572.53
2023-05-04T06:26:09.597Z,99580.97
2023-05-04T06:28:36.343Z,99570.56
2023-05-04T06:31:03.805Z,99577.03
2023-05-04T06:33:30.607Z,99571.94
2023-05-04T06:35:58.085Z,99569.47
2023-05-04T06:38:25.011Z,99566.28
2023-05-04T06:40:52.051Z,99564.75
2023-05-04T06:43:18.830Z,99565.78
2023-05-04T06:45:45.896Z,99568.91
2023-05-04T06:48:12.746Z,99568.41
2023-05-04T06:50:39.929Z,99567.09
2023-05-04T06:53:08.225Z,99556.31
2023-05-04T06:55:36.253Z,99566.91
2023-05-04T06:58:03.355Z,99560.56
2023-05-04T07:00:30.592Z,99558.13
2023-05-04T07:02:57.345Z,99549.16
2023-05-04T07:05:25.225Z,99552.03
2023-05-04T07:07:52.047Z,99555.13
2023-05-04T07:10:19.663Z,99558.75
2023-05-04T07:12:47.042Z,99559.72
2023-05-04T07:15:14.157Z,99557.41
2023-05-04T07:17:41.072Z,99558.25
2023-05-04T07:20:08.688Z,99562.19
2023-05-04T07:22:35.475Z,99560.09
2023-05-04T07:25:03.174Z,99560.22
2023-05-04T07:27:30.060Z,99554.69
2023-05-04T07:29:57.371Z,99560.34
2023-05-04T07:32:24.163Z,99557.38
2023-05-04T07:34:51.251Z,99560.94
2023-05-04T07:37:17.993Z,99555.88
2023-05-04T07:39:45.208Z,99558.81
2023-05-04T07:42:12.031Z,99564.50
2023-05-04T07:44:39.128Z,99571.00
2023-05-04T07:47:05.838Z,99564.19
2023-05-04T07:49:33.015Z,99559.69
2023-05-04T07:51:59.829Z,99557.19
2023-05-04T07:54:26.826Z,99561.28
2023-05-04T07:56:53.676Z,99556.91
2023-05-04T07:59:21.755Z,99549.94
2023-05-04T08:01:48.594Z,99554.59
2023-05-04T08:04:16.004Z,99560.63
2023-05-04T08:06:42.834Z,99549.94
2023-05-04T08:09:10.165Z,99559.16
2023-05-04T08:11:37.954Z,99551.34
2023-05-04T08:14:05.361Z,99555.00
2023-05-04T08:16:32.440Z,99547.75
2023-05-04T08:19:00.103Z,99556.94
2023-05-04T08:21:27.174Z,99557.41
2023-05-04T08:23:54.292Z,99564.88
2023-05-04T08:26:21.108Z,99561.19
2023-05-04T08:28:48.433Z,99559.66
2023-05-04T08:31:15.873Z,99560.56
2023-05-04T08:33:42.976Z,99559.00
2023-05-04T08:36:09.771Z,99556.72
2023-05-04T08:38:36.882Z,99555.19
2023-05-04T08:41:04.332Z,99553.59
2023-05-04T08:43:37.813Z,99555.50
2023-05-04T08:46:05.021Z,99553.06
2023-05-04T08:48:33.743Z,99547.91
2023-05-04T08:51:01.016Z,99546.38
2023-05-04T08:53:28.128Z,99545.34
2023-05-04T08:55:56.009Z,99538.88
2023-05-04T08:58:23.171Z,99545.09
2023-05-04T09:00:50.091Z,99546.34
2023-05-04T09:03:17.437Z,99542.78
2023-05-04T09:05:45.003Z,99534.88
2023-05-04T09:08:12.130Z,99534.97
2023-05-04T09:10:38.849Z,99536.13
2023-05-04T09:13:05.876Z,99531.09
2023-05-04T09:15:33.207Z,99531.41
2023-05-04T09:18:12.236Z,99530.34
2023-05-04T09:20:49.347Z,99519.84
2023-05-04T09:23:17.941Z,99526.31
2023-05-04T09:25:52.154Z,99530.56
2023-05-04T09:28:19.909Z,99531.22
2023-05-04T09:30:48.132Z,99530.63
2023-05-04T09:33:25.638Z,99519.09
2023-05-04T09:35:52.353Z,99521.06
2023-05-04T09:38:29.236Z,99516.72
2023-05-04T09:40:56.159Z,99517.38
2023-05-04T09:43:24.495Z,99505.53
2023-05-04T09:45:51.554Z,99507.72
2023-05-04T09:48:19.269Z,99499.00
2023-05-04T09:51:06.366Z,99502.50
2023-05-04T09:53:33.459Z,99491.94
2023-05-04T09:56:18.657Z,99486.47
2023-05-04T09:58:47.519Z,99499.16
2023-05-04T10:01:14.294Z,99492.78
2023-05-04T10:03:42.467Z,99480.88
2023-05-04T10:06:09.502Z,99494.97
2023-05-04T10:08:36.587Z,99492.81
2023-05-04T10:11:03.346Z,99491.28
2023-05-04T10:13:30.596Z,99485.91
2023-05-04T10:16:00.239Z,99478.06
2023-05-04T10:18:55.350Z,99483.53
2023-05-04T10:21:25.105Z,99475.41
2023-05-04T10:24:07.150Z,99479.16
2023-05-04T10:26:51.423Z,99469.47
2023-05-04T10:29:23.612Z,99467.63
2023-05-04T10:31:50.951Z,99458.53
2023-05-04T10:34:47.605Z,99459.06
2023-05-04T10:37:22.250Z,99443.53
2023-05-04T10:39:55.854Z,99449.34
2023-05-04T10:42:22.794Z,99456.38
2023-05-04T10:44:56.509Z,99444.44
2023-05-04T10:47:33.270Z,99453.16
2023-05-04T10:50:11.222Z,99441.00
2023-05-04T10:52:50.433Z,99435.88
2023-05-04T10:55:17.907Z,99430.56
2023-05-04T10:57:51.816Z,99439.13
2023-05-04T11:00:19.152Z,99434.47
2023-05-04T11:02:49.155Z,99439.44
2023-05-04T11:05:20.056Z,99427.44
2023-05-04T11:07:47.458Z,99434.09
2023-05-04T11:10:25.115Z,99426.03
2023-05-04T11:12:52.728Z,99424.47
2023-05-04T11:15:21.698Z,99420.34
2023-05-04T11:17:49.567Z,99427.72
2023-05-04T11:20:23.797Z,99421.19
2023-05-04T11:22:50.835Z,99415.19
2023-05-04T11:25:18.060Z,99401.59
2023-05-04T11:27:48.825Z,99405.03
2023-05-04T11:30:17.352Z,99408.75
2023-05-04T11:32:46.702Z,99398.09
2023-05-04T11:35:22.945Z,99395.47
2023-05-04T11:37:50.699Z,99404.41
2023-05-04T11:40:23.581Z,99392.16
2023-05-04T11:42:50.336Z,99389.06
2023-05-04T11:45:24.339Z,99384.91
2023-05-04T11:47:51.714Z,99387.94
2023-05-04T11:50:20.521Z,99378.16
2023-05-04T11:52:47.417Z,99377.94
2023-05-04T11:55:33.233Z,99377.84
2023-05-04T11:58:01.177Z,99379.03
2023-05-04T12:00:47.075Z,99376.78
2023-05-04T12:03:15.769Z,99373.84
2023-05-04T12:05:50.949Z,99377.25
2023-05-04T12:08:38.117Z,99382.88
2023-05-04T12:11:11.589Z,99377.00
2023-05-04T12:13:38.399Z,99373.88
2023-05-04T12:16:23.594Z,99374.31
2023-05-04T12:18:50.347Z,99363.59
2023-05-04T12:21:18.911Z,99364.72
2023-05-04T12:23:45.988Z,99362.84
2023-05-04T12:26:13.468Z,99360.00
2023-05-04T12:28:42.395Z,99359.81
2023-05-04T12:31:10.254Z,99366.69
2023-05-04T12:33:37.177Z,99360.94
2023-05-04T12:36:05.867Z,99366.91
2023-05-04T12:38:32.756Z,99364.63
2023-05-04T12:41:02.390Z,99355.53
2023-05-04T12:43:29.156Z,99362.91
2023-05-04T12:45:56.409Z,99357.22
2023-05-04T12:48:23.168Z,99354.66
2023-05-04T12:50:50.878Z,99354.09
2023-05-04T12:53:18.503Z,99350.78
2023-05-04T12:55:45.830Z,99340.22
2023-05-04T12:58:12.826Z,99339.66
2023-05-04T13:00:40.400Z,99338.13
2023-05-04T13:03:07.818Z,99331.22
2023-05-04T13:05:34.946Z,99334.63
2023-05-04T13:08:01.661Z,99325.97
2023-05-04T13:10:28.741Z,99321.13
2023-05-04T13:12:55.570Z,99320.94
2023-05-04T13:15:22.699Z,99322.06
2023-05-04T13:17:49.700Z,99311.69
2023-05-04T13:20:16.838Z,99316.66
2023-05-04T13:22:47.940Z,99307.56
2023-05-04T13:25:15.112Z,99313.53
2023-05-04T13:27:41.919Z,99309.72
2023-05-04T13:30:10.892Z,99315.69
2023-05-04T13:32:37.899Z,99305.53
2023-05-04T13:35:05.780Z,99288.81
2023-05-04T13:37:32.704Z,99289.25
2023-05-04T13:40:01.553Z,99296.28
2023-05-04T13:42:28.486Z,99292.53
2023-05-04T13:44:55.641Z,99287.03
2023-05-04T13:47:23.691Z,99278.78
2023-05-04T13:49:50.987Z,99281.53
2023-05-04T13:52:17.710Z,99277.16
2023-05-04T13:54:44.768Z,99284.81
2023-05-04T13:57:11.508Z,99270.44
2023-05-04T13:59:38.761Z,99268.53
2023-05-04T14:02:05.721Z,99269.84
2023-05-04T14:04:32.857Z,99258.44
2023-05-04T14:06:59.611Z,99266.50
2023-05-04T14:09:26.765Z,99263.56
2023-05-04T14:11:53.981Z,99262.50
2023-05-04T14:14:22.259Z,99256.72
2023-05-04T14:16:49.060Z,99260.81
2023-05-04T14:19:16.220Z,99264.59
2023-05-04T14:21:42.946Z,99251.66
2023-05-04T14:24:10.070Z,99245.75
2023-05-04T14:26:36.831Z,99248.13
2023-05-04T14:29:04.027Z,99251.53
2023-05-04T14:31:30.829Z,99244.13
2023-05-04T14:33:57.917Z,99246.47
2023-05-04T14:36:24.730Z,99239.91
2023-05-04T14:38:51.833Z,99237.16
2023-05-04T14:41:18.679Z,99237.34
2023-05-04T14:43:45.854Z,99236.69
2023-05-04T14:46:15.665Z,99244.97
2023-05-04T14:48:42.821Z,99233.34
2023-05-04T14:51:09.540Z,99239.06
2023-05-04T14:53:39.290Z,99231.84
2023-05-04T14:56:06.934Z,99226.53
2023-05-04T14:58:33.987Z,99235.25
2023-05-04T15:01:00.931Z,99236.13
2023-05-04T15:03:28.686Z,99240.09
2023-05-04T15:05:55.666Z,99225.69
2023-05-04T15:08:22.802Z,99228.03
2023-05-04T15:10:49.535Z,99229.72
2023-05-04T15:13:17.867Z,99234.28
2023-05-04T15:15:44.809Z,99224.72
2023-05-04T15:18:12.238Z,99228.97
2023-05-04T15:20:38.984Z,99226.28
2023-05-04T15:23:10.656Z,99225.03
2023-05-04T15:25:38.808Z,99215.88
2023-05-04T15:28:10.468Z,99214.19
2023-05-04T15:30:40.876Z,99212.22
2023-05-04T15:33:08.271Z,99212.03
2023-05-04T15:35:36.056Z,99213.03
2023-05-04T15:38:03.220Z,99212.78
2023-05-04T15:40:30.035Z,99208.13
2023-05-04T15:42:57.234Z,99205.38
2023-05-04T15:45:24.021Z,99208.31
2023-05-04T15:47:51.789Z,99200.38
2023-05-04T15:50:18.581Z,99205.66
2023-05-04T15:52:45.666Z,99203.53
2023-05-04T15:55:23.762Z,99201.44
2023-05-04T15:57:52.442Z,99200.78
2023-05-04T16:00:19.774Z,99197.13
2023-05-04T16:02:46.950Z,99197.13
2023-05-04T16:05:13.733Z,99204.31
2023-05-04T16:07:40.810Z,99202.56
2023-05-04T16:10:08.400Z,99196.59
2023-05-04T16:12:35.832Z,99199.28
2023-05-04T16:15:02.606Z,99199.78
2023-05-04T16:17:30.876Z,99201.47
2023-05-04T16:19:57.648Z,99198.94
2023-05-04T16:22:24.711Z,99208.88
2023-05-04T16:24:51.495Z,99207.78
2023-05-04T16:27:18.539Z,99200.22
2023-05-04T16:29:45.368Z,99202.50
2023-05-04T16:32:12.340Z,99206.28
2023-05-04T16:34:39.054Z,99207.09
2023-05-04T16:37:06.146Z,99204.25
2023-05-04T16:39:34.367Z,99209.28
2023-05-04T16:42:02.308Z,99217.25
2023-05-04T16:44:29.773Z,99201.91
2023-05-04T16:46:57.694Z,99203.31
2023-05-04T16:49:24.403Z,99201.50
2023-05-04T16:51:53.658Z,99207.19
2023-05-04T16:54:21.106Z,99204.44
2023-05-04T16:56:48.261Z,99202.81
2023-05-04T16:59:15.078Z,99208.72
2023-05-04T17:01:45.601Z,99207.19
2023-05-04T17:04:12.372Z,99206.44
2023-05-04T17:06:39.541Z,99207.19
2023-05-04T17:09:07.060Z,99201.13
2023-05-04T17:11:34.625Z,99213.38
2023-05-04T17:14:01.434Z,99215.50
2023-05-04T17:16:28.580Z,99210.72
2023-05-04T17:18:55.652Z,99211.91
2023-05-04T17:21:22.854Z,99214.09
2023-05-04T17:23:50.759Z,99215.16
2023-05-04T17:26:17.862Z,99218.50
2023-05-04T17:28:44.691Z,99223.88
2023-05-04T17:31:15.005Z,99224.97
2023-05-04T17:33:41.896Z,99223.06
2023-05-04T17:36:12.460Z,99224.38
2023-05-04T17:38:39.789Z,99220.66
2023-05-04T17:41:07.436Z,99227.41
2023-05-04T17:43:34.306Z,99226.44
2023-05-04T17:46:02.182Z,99235.03
2023-05-04T17:48:31.265Z,99230.38
2023-05-04T17:50:58.672Z,99230.63
2023-05-04T17:53:28.952Z,99232.84
2023-05-04T17:55:56.157Z,99236.50
2023-05-04T17:58:23.478Z,99237.53
2023-05-04T18:00:53.241Z,99248.78
2023-05-04T18:03:20.367Z,99246.75
2023-05-04T18:05:47.619Z,99245.91
2023-05-04T18:08:14.496Z,99243.19
2023-05-04T18:10:41.650Z,99245.09
2023-05-04T18:13:08.595Z,99257.47
2023-05-04T18:15:35.828Z,99252.66
2023-05-04T18:18:02.865Z,99255.09
2023-05-04T18:20:30.152Z,99266.75
2023-05-04T18:22:56.950Z,99274.44
2023-05-04T18:25:24.176Z,99257.66
2023-05-04T18:27:50.982Z,99271.22
2023-05-04T18:30:18.216Z,99269.53
2023-05-04T18:32:46.679Z,99272.78
2023-05-04T18:35:17.034Z,99267.81
2023-05-04T18:37:43.863Z,99270.38
2023-05-04T18:40:11.565Z,99271.25
2023-05-04T18:42:38.399Z,99275.69
2023-05-04T18:45:06.986Z,99274.50
2023-05-04T18:47:33.908Z,99283.56
2023-05-04T18:50:01.466Z,99276.03
2023-05-04T18:52:28.362Z,99279.59
2023-05-04T18:54:56.109Z,99281.50
2023-05-04T18:57:23.523Z,99274.44
2023-05-04T18:59:51.633Z,99282.31
2023-05-04T19:02:18.666Z,99275.81
2023-05-04T19:04:47.145Z,99274.59
2023-05-04T19:07:15.331Z,99281.75
2023-05-04T19:09:47.262Z,99277.81
2023-05-04T19:12:14.331Z,99279.34
2023-05-04T19:14:43.493Z,99279.69
2023-05-04T19:17:11.246Z,99282.91
2023-05-04T19:19:38.434Z,99279.13
2023-05-04T19:22:05.293Z,99278.59
2023-05-04T19:24:34.430Z,99275.50
2023-05-04T19:27:01.355Z,99276.97
2023-05-04T19:29:28.590Z,99281.22
2023-05-04T19:31:55.651Z,99280.19
2023-05-04T19:34:23.339Z,99276.72
2023-05-04T19:36:50.166Z,99272.09
2023-05-04T19:39:19.961Z,99269.00
2023-05-04T19:41:47.504Z,99270.50
2023-05-04T19:44:15.285Z,99270.50
2023-05-04T19:46:42.734Z,99264.13
2023-05-04T19:49:09.883Z,99268.22
2023-05-04T19:51:38.454Z,99264.94
2023-05-04T19:54:05.636Z,99264.03
2023-05-04T19:56:32.621Z,99259.91
2023-05-04T19:58:59.811Z,99256.81
2023-05-04T20:01:26.798Z,99258.44
2023-05-04T20:03:54.011Z,99259.66
2023-05-04T20:06:22.178Z,99250.75
2023-05-04T20:08:50.853Z,99251.19
2023-05-04T20:11:17.728Z,99255.25
2023-05-04T20:13:45.630Z,99257.44
2023-05-04T20:16:13.131Z,99257.06
2023-05-04T20:18:40.532Z,99254.50
2023-05-04T20:21:07.329Z,99245.06
2023-05-04T20:23:34.427Z,99249.69
2023-05-04T20:26:03.027Z,99250.84
2023-05-04T20:28:32.579Z,99245.31
2023-05-04T20:31:00.040Z,99250.78
2023-05-04T20:33:27.135Z,99252.44
2023-05-04T20:35:54.362Z,99250.00
2023-05-04T20:38:21.478Z,99256.81
2023-05-04T20:40:49.364Z,99255.22
2023-05-04T20:43:16.930Z,99257.88
2023-05-04T20:45:43.738Z,99249.16
2023-05-04T20:48:10.994Z,99251.03
2023-05-04T20:50:39.923Z,99256.09
2023-05-04T20:53:07.021Z,99252.84
2023-05-04T20:55:34.190Z,99246.81
2023-05-04T20:58:01.278Z,99238.63
2023-05-04T21:00:28.048Z,99238.38
2023-05-04T21:02:55.156Z,99234.53
2023-05-04T21:05:21.982Z,99231.25
2023-05-04T21:07:51.948Z,99230.81
2023-05-04T21:10:21.420Z,99230.72
2023-05-04T21:12:48.540Z,99232.56
2023-05-04T21:15:15.366Z,99231.16
2023-05-04T21:17:42.579Z,99227.28
2023-05-04T21:20:10.226Z,99229.06
2023-05-04T21:22:37.475Z,99228.59
2023-05-04T21:25:04.521Z,99221.50
2023-05-04T21:27:31.607Z,99225.38
2023-05-04T21:29:58.386Z,99216.97
2023-05-04T21:32:25.519Z,99218.97
2023-05-04T21:34:55.283Z,99212.97
2023-05-04T21:37:22.434Z,99214.84
2023-05-04T21:39:53.773Z,99215.59
2023-05-04T21:42:20.804Z,99212.34
2023-05-04T21:44:47.533Z,99206.34
2023-05-04T21:47:14.603Z,99205.19
2023-05-04T21:49:41.328Z,99201.94
2023-05-04T21:52:08.381Z,99207.53
2023-05-04T21:54:35.130Z,99205.41
2023-05-04T21:57:03.491Z,99201.41
2023-05-04T21:59:30.266Z,99208.75
2023-05-04T22:01:57.303Z,99211.75
2023-05-04T22:04:24.167Z,99212.47
2023-05-04T22:06:51.548Z,99209.63
2023-05-04T22:09:19.065Z,99210.75
2023-05-04T22:11:46.660Z,99208.63
2023-05-04T22:14:13.642Z,99213.50
2023-05-04T22:16:40.991Z,99209.22
2023-05-04T22:19:07.714Z,99213.09
2023-05-04T22:21:34.794Z,99212.53
2023-05-04T22:24:01.654Z,99214.38
2023-05-04T22:26:28.654Z,99219.75
2023-05-04T22:28:55.392Z,99221.44
2023-05-04T22:31:22.470Z,99217.16
2023-05-04T22:33:49.191Z,99222.34
2023-05-04T22:36:16.296Z,99215.59
2023-05-04T22:38:43.442Z,99213.63
2023-05-04T22:41:10.523Z,99204.44
2023-05-04T22:43:37.284Z,99204.16
2023-05-04T22:46:04.424Z,99205.75
2023-05-04T22:48:32.488Z,99195.00
2023-05-04T22:51:01.195Z,99204.47
2023-05-04T22:53:27.902Z,99209.78
2023-05-04T22:55:54.931Z,99200.47
2023-05-04T22:58:22.183Z,99198.34
2023-05-04T23:00:50.874Z,99194.03
2023-05-04T23:03:17.776Z,99197.75
2023-05-04T23:05:45.119Z,99201.19
2023-05-04T23:08:11.873Z,99190.47
2023-05-04T23:10:38.933Z,99194.28
2023-05-04T23:13:05.711Z,99197.44
2023-05-04T23:15:33.058Z,99194.44
2023-05-04T23:18:00.228Z,99193.84
2023-05-04T23:20:27.641Z,99195.56
2023-05-04T23:22:54.408Z,99200.72
2023-05-04T23:25:21.486Z,99195.84
2023-05-04T23:27:48.240Z,99195.84
2023-05-04T23:30:15.714Z,99198.00
2023-05-04T23:32:42.487Z,99196.13
2023-05-04T23:35:09.830Z,99189.81
2023-05-04T23:37:36.794Z,99180.38
2023-05-04T23:40:04.136Z,99186.22
2023-05-04T23:42:30.908Z,99181.25
2023-05-04T23:44:57.951Z,99174.94
2023-05-04T23:47:24.742Z,99174.50
2023-05-04T23:49:51.903Z,99174.31
2023-05-04T23:52:18.663Z,99176.75
2023-05-04T23:54:46.647Z,99163.47
2023-05-04T23:57:13.409Z,99173.88
2023-05-04T23:59:40.527Z,99177.75
